createdAt,value
2018-08-16T00:02:25.867Z,21.00
2018-08-16T00:05:01.891Z,21.63
2018-08-16T00:07:38.295Z,20.90
2018-08-16T00:10:20.252Z,24.00
2018-08-16T00:12:56.249Z,24.13
2018-08-16T00:15:32.636Z,22.10
2018-08-16T00:18:08.196Z,23.40
2018-08-16T00:20:43.342Z,24.43
2018-08-16T00:23:18.813Z,23.30
2018-08-16T00:25:53.535Z,24.47
2018-08-16T00:28:29.583Z,22.50
2018-08-16T00:31:05.683Z,26.87
2018-08-16T00:33:42.872Z,25.13
2018-08-16T00:36:19.845Z,23.80
2018-08-16T00:38:58.420Z,23.27
2018-08-16T00:41:34.101Z,26.67
2018-08-16T00:44:11.473Z,26.27
2018-08-16T00:46:49.228Z,24.40
2018-08-16T00:49:26.509Z,25.85
2018-08-16T00:52:05.267Z,24.90
2018-08-16T00:54:43.578Z,26.00
2018-08-16T00:57:20.202Z,27.30
2018-08-16T00:59:57.667Z,31.47
2018-08-16T01:02:34.276Z,28.87
2018-08-16T01:05:11.208Z,25.63
2018-08-16T01:07:40.839Z,25.53
2018-08-16T01:10:12.115Z,25.57
2018-08-16T01:12:42.354Z,26.73
2018-08-16T01:15:13.558Z,24.90
2018-08-16T01:17:43.281Z,29.40
2018-08-16T01:20:12.981Z,25.77
2018-08-16T01:22:42.690Z,26.83
2018-08-16T01:25:12.831Z,24.53
2018-08-16T01:27:42.258Z,29.50
2018-08-16T01:30:11.957Z,26.23
2018-08-16T01:32:41.654Z,30.13
2018-08-16T01:35:11.073Z,32.44
2018-08-16T01:37:40.633Z,30.30
2018-08-16T01:40:10.401Z,30.17
2018-08-16T01:42:40.294Z,26.83
2018-08-16T01:45:10.922Z,28.97
2018-08-16T01:47:40.753Z,26.30
2018-08-16T01:50:10.299Z,27.90
2018-08-16T01:52:40.013Z,26.97
2018-08-16T01:55:09.437Z,27.97
2018-08-16T01:57:38.962Z,27.50
2018-08-16T02:00:10.804Z,26.97
2018-08-16T02:02:40.504Z,28.57
2018-08-16T02:05:10.167Z,27.97
2018-08-16T02:07:39.776Z,29.17
2018-08-16T02:10:09.610Z,28.38
2018-08-16T02:12:39.108Z,27.07
2018-08-16T02:15:11.719Z,25.97
2018-08-16T02:17:41.428Z,30.20
2018-08-16T02:20:13.893Z,29.18
2018-08-16T02:22:44.102Z,28.23
2018-08-16T02:25:13.683Z,27.77
2018-08-16T02:27:43.256Z,29.00
2018-08-16T02:30:12.746Z,25.60
2018-08-16T02:32:42.266Z,26.15
2018-08-16T02:35:11.932Z,27.90
2018-08-16T02:37:41.597Z,25.10
2018-08-16T02:40:11.294Z,24.20
2018-08-16T02:42:40.769Z,24.87
2018-08-16T02:45:10.434Z,25.17
2018-08-16T02:47:40.062Z,25.90
2018-08-16T02:50:09.956Z,23.73
2018-08-16T02:52:39.507Z,24.30
2018-08-16T02:55:08.985Z,24.83
2018-08-16T02:57:38.393Z,24.33
2018-08-16T03:00:09.959Z,24.03
2018-08-16T03:02:39.673Z,25.13
2018-08-16T03:05:09.254Z,24.00
2018-08-16T03:07:38.684Z,22.93
2018-08-16T03:10:09.335Z,24.37
2018-08-16T03:12:38.958Z,24.00
2018-08-16T03:15:10.052Z,24.37
2018-08-16T03:17:39.943Z,21.90
2018-08-16T03:20:09.573Z,24.85
2018-08-16T03:22:39.110Z,22.00
2018-08-16T03:25:08.584Z,26.13
2018-08-16T03:27:38.022Z,23.90
2018-08-16T03:30:07.832Z,23.47
2018-08-16T03:32:37.277Z,25.23
2018-08-16T03:35:07.369Z,23.90
2018-08-16T03:37:36.843Z,24.07
2018-08-16T03:40:07.355Z,21.00
2018-08-16T03:42:37.111Z,21.93
2018-08-16T03:45:07.225Z,21.57
2018-08-16T03:47:36.639Z,21.47
2018-08-16T03:50:07.406Z,20.53
2018-08-16T03:52:36.966Z,23.20
2018-08-16T03:55:06.572Z,21.67
2018-08-16T03:57:36.051Z,22.60
2018-08-16T04:00:07.681Z,23.27
2018-08-16T04:02:37.186Z,23.75
2018-08-16T04:05:07.230Z,21.20
2018-08-16T04:07:36.910Z,20.83
2018-08-16T04:10:06.625Z,21.10
2018-08-16T04:12:36.092Z,21.20
2018-08-16T04:15:06.405Z,21.05
2018-08-16T04:17:38.171Z,22.27
2018-08-16T04:20:08.116Z,23.27
2018-08-16T04:22:37.536Z,23.50
2018-08-16T04:25:07.155Z,22.47
2018-08-16T04:27:36.711Z,22.17
2018-08-16T04:30:07.055Z,22.73
2018-08-16T04:32:36.601Z,21.40
2018-08-16T04:35:06.342Z,21.10
2018-08-16T04:37:35.919Z,23.90
2018-08-16T04:40:06.536Z,23.32
2018-08-16T04:42:36.141Z,21.70
2018-08-16T04:45:08.046Z,20.60
2018-08-16T04:47:37.742Z,21.67
2018-08-16T04:50:10.601Z,20.50
2018-08-16T04:52:40.129Z,20.83
2018-08-16T04:55:10.522Z,19.53
2018-08-16T04:57:39.992Z,21.40
2018-08-16T05:00:11.960Z,19.40
2018-08-16T05:02:41.431Z,19.67
2018-08-16T05:05:10.878Z,20.20
2018-08-16T05:07:40.270Z,20.08
2018-08-16T05:10:11.006Z,19.23
2018-08-16T05:12:40.340Z,21.20
2018-08-16T05:15:12.121Z,17.43
2018-08-16T05:17:41.600Z,20.47
2018-08-16T05:20:12.820Z,18.98
2018-08-16T05:22:42.413Z,18.93
2018-08-16T05:25:11.879Z,19.53
2018-08-16T05:27:41.309Z,17.77
2018-08-16T05:30:12.615Z,18.42
2018-08-16T05:32:42.292Z,18.03
2018-08-16T05:35:11.726Z,17.33
2018-08-16T05:37:41.149Z,18.13
2018-08-16T05:40:11.172Z,19.48
2018-08-16T05:42:40.653Z,19.30
2018-08-16T05:45:10.112Z,18.20
2018-08-16T05:47:39.524Z,17.70
2018-08-16T05:50:11.446Z,18.03
2018-08-16T05:52:41.299Z,17.13
2018-08-16T05:55:10.703Z,18.57
2018-08-16T05:57:40.243Z,17.97
2018-08-16T06:00:13.191Z,18.20
2018-08-16T06:02:42.640Z,17.03
2018-08-16T06:05:12.687Z,17.50
2018-08-16T06:07:42.190Z,17.23
2018-08-16T06:10:11.686Z,17.40
2018-08-16T06:13:11.621Z,17.47
2018-08-16T06:15:41.068Z,17.07
2018-08-16T06:18:10.466Z,17.65
2018-08-16T06:20:39.798Z,16.33
2018-08-16T06:23:09.168Z,17.27
2018-08-16T06:25:38.541Z,17.20
2018-08-16T06:28:07.979Z,16.60
2018-08-16T06:30:37.378Z,17.67
2018-08-16T06:33:06.897Z,16.27
2018-08-16T06:35:36.303Z,17.53
2018-08-16T06:38:07.206Z,16.20
2018-08-16T06:40:36.566Z,16.87
2018-08-16T06:43:06.249Z,16.07
2018-08-16T06:45:35.593Z,16.60
2018-08-16T06:48:06.299Z,16.80
2018-08-16T06:50:35.677Z,15.20
2018-08-16T06:53:05.994Z,14.58
2018-08-16T06:55:35.390Z,14.97
2018-08-16T06:58:06.025Z,15.30
2018-08-16T07:00:35.361Z,14.17
2018-08-16T07:03:06.018Z,14.40
2018-08-16T07:05:35.358Z,14.50
2018-08-16T07:08:04.703Z,13.50
2018-08-16T07:10:34.162Z,13.80
2018-08-16T07:13:03.547Z,13.97
2018-08-16T07:15:32.944Z,12.80
2018-08-16T07:18:02.381Z,13.30
2018-08-16T07:20:31.755Z,13.90
2018-08-16T07:23:01.091Z,13.80
2018-08-16T07:25:30.606Z,13.90
2018-08-16T07:27:59.966Z,14.10
2018-08-16T07:30:29.351Z,13.23
2018-08-16T07:32:58.741Z,13.80
2018-08-16T07:35:28.097Z,13.20
2018-08-16T07:37:57.474Z,13.40
2018-08-16T07:41:29.511Z,12.77
2018-08-16T07:43:58.914Z,12.70
2018-08-16T07:46:28.343Z,12.50
2018-08-16T07:48:57.822Z,13.07
2018-08-16T07:51:27.357Z,12.43
2018-08-16T07:53:56.533Z,11.77
2018-08-16T07:56:26.037Z,11.53
2018-08-16T07:58:55.409Z,10.97
2018-08-16T08:01:24.773Z,12.27
2018-08-16T08:03:54.126Z,11.53
2018-08-16T08:06:23.510Z,11.25
2018-08-16T08:08:52.902Z,11.90
2018-08-16T08:11:22.198Z,10.90
2018-08-16T08:13:51.630Z,9.77
2018-08-16T08:16:21.082Z,10.75
2018-08-16T08:18:50.450Z,10.17
2018-08-16T08:21:19.847Z,10.03
2018-08-16T08:23:49.277Z,10.17
2018-08-16T08:26:18.602Z,9.63
2018-08-16T08:28:47.979Z,9.97
2018-08-16T08:31:17.347Z,10.10
2018-08-16T08:33:46.789Z,10.40
2018-08-16T08:36:32.992Z,9.80
2018-08-16T08:39:02.789Z,10.40
2018-08-16T08:41:32.060Z,9.87
2018-08-16T08:44:16.825Z,10.00
2018-08-16T08:46:47.035Z,10.13
2018-08-16T08:49:16.466Z,9.10
2018-08-16T08:51:45.877Z,10.43
2018-08-16T08:54:46.155Z,9.67
2018-08-16T08:57:32.994Z,9.90
2018-08-16T09:00:02.399Z,9.17
2018-08-16T09:02:31.822Z,8.53
2018-08-16T09:05:01.278Z,9.53
2018-08-16T09:07:30.648Z,9.10
2018-08-16T09:11:15.271Z,9.03
2018-08-16T09:14:04.694Z,7.27
2018-08-16T09:16:36.391Z,7.03
2018-08-16T09:19:06.593Z,6.97
2018-08-16T09:21:36.191Z,6.80
2018-08-16T09:24:06.169Z,7.10
2018-08-16T09:26:41.736Z,7.30
2018-08-16T09:30:35.424Z,6.45
2018-08-16T09:33:22.854Z,5.83
2018-08-16T09:35:52.258Z,5.67
2018-08-16T09:38:21.607Z,4.83
2018-08-16T09:40:50.940Z,5.77
2018-08-16T09:43:20.327Z,4.87
2018-08-16T09:47:08.166Z,5.27
2018-08-16T09:49:41.710Z,5.17
2018-08-16T09:52:12.100Z,5.70
2018-08-16T09:54:41.470Z,4.87
2018-08-16T09:57:11.766Z,5.55
2018-08-16T09:59:41.150Z,5.20
2018-08-16T10:02:13.506Z,5.78
2018-08-16T10:04:42.823Z,5.07
2018-08-16T10:07:12.203Z,4.70
2018-08-16T10:09:41.553Z,5.20
2018-08-16T10:12:10.937Z,4.55
2018-08-16T10:15:10.923Z,5.27
2018-08-16T10:17:40.304Z,5.00
2018-08-16T10:20:09.669Z,5.57
2018-08-16T10:22:39.112Z,5.40
2018-08-16T10:25:08.490Z,5.60
2018-08-16T10:27:37.891Z,5.43
2018-08-16T10:30:08.780Z,4.77
2018-08-16T10:32:38.206Z,4.87
2018-08-16T10:35:08.154Z,4.90
2018-08-16T10:37:37.579Z,4.70
2018-08-16T10:40:07.251Z,5.00
2018-08-16T10:42:36.699Z,4.43
2018-08-16T10:45:06.706Z,4.47
2018-08-16T10:47:36.106Z,4.83
2018-08-16T10:50:06.762Z,5.00
2018-08-16T10:52:36.189Z,4.50
2018-08-16T10:55:06.623Z,5.13
2018-08-16T10:57:35.956Z,4.60
2018-08-16T11:00:07.404Z,5.25
2018-08-16T11:02:36.772Z,4.97
2018-08-16T11:05:06.567Z,5.17
2018-08-16T11:07:36.066Z,4.77
2018-08-16T11:10:06.494Z,5.00
2018-08-16T11:12:35.874Z,4.83
2018-08-16T11:15:05.981Z,4.60
2018-08-16T11:17:35.361Z,4.95
2018-08-16T11:20:04.760Z,4.70
2018-08-16T11:22:34.128Z,5.20
2018-08-16T11:25:03.888Z,4.53
2018-08-16T11:27:33.414Z,5.00
2018-08-16T11:30:02.869Z,5.27
2018-08-16T11:32:32.223Z,4.93
2018-08-16T11:35:01.642Z,4.70
2018-08-16T11:37:30.978Z,5.43
2018-08-16T11:40:00.382Z,4.73
2018-08-16T11:42:29.785Z,5.37
2018-08-16T11:44:59.371Z,4.83
2018-08-16T11:47:28.717Z,4.63
2018-08-16T11:49:58.139Z,4.97
2018-08-16T11:52:27.488Z,4.83
2018-08-16T11:54:56.893Z,5.10
2018-08-16T11:57:26.282Z,4.90
2018-08-16T11:59:55.665Z,4.80
2018-08-16T12:02:25.028Z,5.17
2018-08-16T12:04:54.512Z,4.47
2018-08-16T12:07:23.871Z,5.10
2018-08-16T12:09:53.270Z,5.00
2018-08-16T12:12:22.722Z,5.47
2018-08-16T12:14:52.182Z,4.83
2018-08-16T12:17:21.647Z,4.70
2018-08-16T12:19:51.006Z,5.23
2018-08-16T12:22:20.445Z,4.78
2018-08-16T12:24:49.951Z,4.87
2018-08-16T12:27:19.630Z,4.97
2018-08-16T12:29:49.010Z,5.40
2018-08-16T12:32:18.406Z,8.17
2018-08-16T12:34:48.646Z,8.33
2018-08-16T12:37:18.132Z,5.50
2018-08-16T12:39:47.598Z,5.20
2018-08-16T12:42:17.167Z,5.30
2018-08-16T12:44:46.640Z,5.90
2018-08-16T12:47:16.050Z,5.12
2018-08-16T12:49:45.390Z,4.93
2018-08-16T12:52:14.769Z,4.97
2018-08-16T12:54:44.247Z,5.30
2018-08-16T12:57:13.707Z,4.63
2018-08-16T12:59:43.166Z,5.23
2018-08-16T13:02:12.610Z,5.03
2018-08-16T13:04:42.010Z,4.83
2018-08-16T13:07:11.366Z,4.73
2018-08-16T13:09:41.346Z,5.10
2018-08-16T13:12:10.787Z,5.05
2018-08-16T13:14:40.159Z,4.60
2018-08-16T13:17:09.636Z,4.97
2018-08-16T13:19:39.243Z,5.17
2018-08-16T13:22:08.701Z,5.00
2018-08-16T13:24:38.123Z,4.90
2018-08-16T13:27:09.771Z,5.00
2018-08-16T13:29:39.174Z,4.93
2018-08-16T13:32:08.627Z,5.00
2018-08-16T13:34:38.092Z,5.67
2018-08-16T13:37:07.675Z,5.00
2018-08-16T13:39:37.052Z,5.53
2018-08-16T13:42:07.874Z,4.57
2018-08-16T13:44:37.342Z,5.43
2018-08-16T13:47:06.804Z,5.50
2018-08-16T13:49:36.196Z,5.40
2018-08-16T13:52:06.664Z,5.70
2018-08-16T13:54:36.079Z,5.80
2018-08-16T13:57:06.746Z,5.55
2018-08-16T13:59:36.247Z,6.93
2018-08-16T14:02:06.171Z,5.33
2018-08-16T14:04:35.747Z,6.47
2018-08-16T14:07:05.663Z,6.43
2018-08-16T14:09:35.335Z,5.50
2018-08-16T14:12:04.778Z,6.60
2018-08-16T14:14:35.605Z,6.20
2018-08-16T14:17:05.296Z,6.13
2018-08-16T14:19:34.956Z,5.83
2018-08-16T14:22:04.358Z,6.33
2018-08-16T14:24:33.767Z,6.30
2018-08-16T14:27:03.182Z,6.30
2018-08-16T14:29:32.741Z,5.70
2018-08-16T14:32:03.229Z,5.73
2018-08-16T14:34:32.624Z,6.20
2018-08-16T14:37:02.134Z,6.20
2018-08-16T14:39:31.686Z,6.00
2018-08-16T14:42:01.148Z,7.17
2018-08-16T14:44:30.573Z,6.73
2018-08-16T14:46:59.934Z,6.60
2018-08-16T14:49:29.345Z,6.43
2018-08-16T14:51:58.847Z,5.80
2018-08-16T14:54:28.265Z,6.00
2018-08-16T14:56:57.701Z,5.30
2018-08-16T14:59:27.166Z,6.10
2018-08-16T15:01:56.568Z,5.83
2018-08-16T15:04:25.984Z,5.70
2018-08-16T15:06:55.427Z,6.27
2018-08-16T15:09:24.843Z,5.87
2018-08-16T15:11:54.322Z,7.10
2018-08-16T15:14:23.774Z,7.10
2018-08-16T15:16:53.304Z,6.70
2018-08-16T15:19:22.707Z,7.28
2018-08-16T15:21:52.119Z,7.80
2018-08-16T15:24:22.110Z,7.25
2018-08-16T15:26:51.555Z,6.30
2018-08-16T15:29:21.201Z,7.25
2018-08-16T15:31:54.307Z,7.33
2018-08-16T15:34:23.788Z,7.35
2018-08-16T15:36:53.190Z,7.00
2018-08-16T15:39:22.594Z,7.00
2018-08-16T15:41:51.946Z,6.10
2018-08-16T15:44:21.398Z,6.03
2018-08-16T15:46:50.742Z,5.00
2018-08-16T15:49:20.144Z,5.17
2018-08-16T15:51:49.521Z,5.07
2018-08-16T15:54:18.960Z,5.00
2018-08-16T15:56:49.025Z,5.73
2018-08-16T16:02:01.229Z,5.67
2018-08-16T16:04:30.733Z,5.40
2018-08-16T16:07:01.098Z,5.20
2018-08-16T16:09:30.587Z,5.37
2018-08-16T16:12:00.122Z,5.80
2018-08-16T16:14:29.628Z,5.17
2018-08-16T16:16:59.219Z,5.33
2018-08-16T16:19:28.796Z,4.93
2018-08-16T16:21:58.965Z,4.80
2018-08-16T16:24:28.435Z,5.13
2018-08-16T16:26:57.867Z,5.47
2018-08-16T16:29:27.491Z,5.20
2018-08-16T16:31:57.111Z,5.10
2018-08-16T16:34:26.880Z,5.47
2018-08-16T16:36:56.386Z,6.00
2018-08-16T16:39:26.008Z,5.83
2018-08-16T16:41:55.544Z,5.83
2018-08-16T16:44:30.931Z,5.73
2018-08-16T16:47:02.319Z,5.90
2018-08-16T16:49:34.877Z,5.00
2018-08-16T16:52:07.705Z,5.40
2018-08-16T16:54:40.647Z,5.57
2018-08-16T16:57:16.478Z,5.33
2018-08-16T16:59:55.968Z,5.70
2018-08-16T17:02:25.419Z,5.60
2018-08-16T17:04:54.947Z,5.50
2018-08-16T17:07:24.593Z,5.37
2018-08-16T17:09:54.102Z,5.70
2018-08-16T17:12:24.671Z,4.87
2018-08-16T17:14:54.214Z,6.03
2018-08-16T17:17:23.690Z,5.47
2018-08-16T17:19:53.131Z,5.57
2018-08-16T17:22:23.355Z,6.62
2018-08-16T17:24:55.730Z,6.20
2018-08-16T17:27:25.118Z,6.33
2018-08-16T17:29:54.626Z,5.77
2018-08-16T17:32:24.084Z,6.47
2018-08-16T17:34:53.531Z,6.07
2018-08-16T17:37:23.083Z,6.40
2018-08-16T17:39:52.594Z,6.70
2018-08-16T17:42:22.047Z,7.10
2018-08-16T17:44:51.558Z,7.00
2018-08-16T17:47:21.067Z,6.60
2018-08-16T17:49:55.336Z,7.10
2018-08-16T17:52:24.935Z,7.40
2018-08-16T17:54:54.427Z,7.53
2018-08-16T17:57:24.888Z,7.70
2018-08-16T17:59:54.405Z,7.87
2018-08-16T18:02:23.861Z,5.53
2018-08-16T18:04:53.300Z,3.47
2018-08-16T18:07:22.747Z,2.95
2018-08-16T18:09:52.346Z,2.07
2018-08-16T18:12:22.731Z,2.50
2018-08-16T18:14:54.221Z,1.80
2018-08-16T18:17:23.888Z,2.40
2018-08-16T18:19:53.441Z,2.00
2018-08-16T18:22:22.970Z,2.20
2018-08-16T18:24:52.638Z,2.00
2018-08-16T18:27:22.152Z,2.30
2018-08-16T18:29:51.906Z,2.40
2018-08-16T18:32:21.407Z,2.20
2018-08-16T18:34:50.966Z,2.77
2018-08-16T18:37:20.827Z,2.77
2018-08-16T18:39:53.051Z,2.50
2018-08-16T18:42:22.659Z,2.70
2018-08-16T18:44:52.258Z,2.50
2018-08-16T18:47:21.827Z,2.65
2018-08-16T18:49:51.463Z,3.03
2018-08-16T18:52:20.999Z,2.50
2018-08-16T18:54:50.666Z,2.33
2018-08-16T18:57:20.941Z,3.00
2018-08-16T18:59:50.479Z,2.60
2018-08-16T19:02:23.359Z,2.40
2018-08-16T19:04:52.848Z,2.30
2018-08-16T19:07:22.383Z,2.80
2018-08-16T19:09:52.518Z,2.47
2018-08-16T19:12:22.013Z,2.83
2018-08-16T19:14:51.482Z,2.53
2018-08-16T19:17:21.904Z,2.57
2018-08-16T19:19:51.404Z,2.90
2018-08-16T19:22:21.242Z,2.70
2018-08-16T19:24:50.743Z,2.10
2018-08-16T19:27:23.222Z,2.47
2018-08-16T19:29:52.744Z,2.57
2018-08-16T19:32:22.216Z,2.30
2018-08-16T19:34:51.750Z,2.70
2018-08-16T19:37:21.262Z,2.50
2018-08-16T19:39:50.829Z,2.90
2018-08-16T19:42:20.564Z,2.62
2018-08-16T19:44:51.595Z,2.70
2018-08-16T19:47:21.018Z,3.10
2018-08-16T19:49:50.473Z,3.40
2018-08-16T19:52:21.482Z,3.30
2018-08-16T19:54:51.828Z,2.83
2018-08-16T19:57:21.276Z,2.75
2018-08-16T19:59:50.787Z,3.23
2018-08-16T20:02:21.206Z,2.85
2018-08-16T20:04:50.616Z,2.80
2018-08-16T20:07:20.227Z,3.27
2018-08-16T20:09:50.649Z,2.80
2018-08-16T20:12:20.065Z,2.95
2018-08-16T20:14:49.555Z,3.03
2018-08-16T20:17:30.677Z,2.70
2018-08-16T20:20:00.199Z,3.17
2018-08-16T20:22:29.699Z,2.77
2018-08-16T20:24:59.243Z,3.77
2018-08-16T20:27:28.655Z,3.43
2018-08-16T20:29:58.113Z,3.73
2018-08-16T20:32:27.885Z,3.30
2018-08-16T20:34:57.416Z,3.60
2018-08-16T20:37:26.918Z,3.97
2018-08-16T20:39:56.377Z,3.90
2018-08-16T20:42:26.100Z,3.43
2018-08-16T20:44:55.586Z,3.40
2018-08-16T20:47:25.007Z,3.53
2018-08-16T20:49:54.466Z,4.20
2018-08-16T20:52:23.931Z,4.20
2018-08-16T20:54:53.892Z,4.17
2018-08-16T20:57:23.392Z,4.00
2018-08-16T20:59:53.134Z,4.70
2018-08-16T21:02:22.701Z,4.60
2018-08-16T21:04:52.741Z,5.23
2018-08-16T21:07:26.451Z,4.33
2018-08-16T21:09:56.162Z,4.53
2018-08-16T21:12:25.666Z,4.43
2018-08-16T21:14:55.223Z,3.23
2018-08-16T21:17:24.770Z,4.40
2018-08-16T21:19:54.227Z,3.20
2018-08-16T21:22:25.955Z,3.37
2018-08-16T21:24:55.423Z,3.50
2018-08-16T21:27:25.572Z,4.97
2018-08-16T21:29:56.919Z,4.30
2018-08-16T21:32:26.750Z,3.60
2018-08-16T21:34:56.203Z,4.60
2018-08-16T21:37:25.606Z,4.40
2018-08-16T21:39:55.007Z,3.97
2018-08-16T21:42:24.600Z,4.10
2018-08-16T21:44:54.050Z,4.97
2018-08-16T21:47:23.482Z,4.43
2018-08-16T21:49:52.921Z,4.43
2018-08-16T21:52:22.320Z,3.77
2018-08-16T21:54:51.866Z,4.47
2018-08-16T21:57:21.943Z,4.17
2018-08-16T21:59:51.394Z,4.90
2018-08-16T22:02:20.931Z,4.47
2018-08-16T22:04:50.363Z,5.27
2018-08-16T22:08:04.294Z,5.30
2018-08-16T22:10:34.011Z,6.03
2018-08-16T22:13:03.514Z,6.63
2018-08-16T22:15:33.528Z,6.57
2018-08-16T22:18:02.939Z,6.63
2018-08-16T22:20:32.441Z,6.37
2018-08-16T22:23:02.050Z,6.20
2018-08-16T22:25:31.409Z,6.80
2018-08-16T22:28:00.826Z,6.10
2018-08-16T22:30:30.606Z,7.40
2018-08-16T22:33:00.508Z,7.37
2018-08-16T22:35:30.246Z,6.30
2018-08-16T22:37:59.642Z,5.23
2018-08-16T22:40:29.079Z,5.93
2018-08-16T22:42:58.536Z,7.63
2018-08-16T22:45:27.918Z,6.57
2018-08-16T22:47:57.863Z,6.90
2018-08-16T22:50:27.355Z,5.47
2018-08-16T22:52:56.798Z,6.67
2018-08-16T22:55:26.335Z,6.27
2018-08-16T22:57:55.766Z,8.73
2018-08-16T23:00:25.223Z,7.33
2018-08-16T23:02:54.681Z,6.87
2018-08-16T23:05:24.158Z,6.60
2018-08-16T23:07:53.613Z,6.80
2018-08-16T23:10:23.144Z,8.00
2018-08-16T23:13:00.990Z,7.90
2018-08-16T23:15:36.168Z,8.13
2018-08-16T23:18:17.754Z,6.73
2018-08-16T23:20:53.728Z,6.90
2018-08-16T23:23:29.420Z,8.28
2018-08-16T23:26:06.387Z,9.23
2018-08-16T23:28:43.279Z,9.07
2018-08-16T23:31:19.420Z,8.73
2018-08-16T23:33:56.855Z,8.53
2018-08-16T23:36:33.988Z,10.63
2018-08-16T23:39:09.287Z,11.00
2018-08-16T23:41:46.300Z,11.23
2018-08-16T23:44:23.892Z,9.60
2018-08-16T23:47:01.396Z,9.77
2018-08-16T23:49:38.879Z,8.27
2018-08-16T23:52:15.519Z,9.40
2018-08-16T23:54:53.351Z,7.77
2018-08-16T23:57:30.083Z,7.97
